sensor_id;sensor_type;location;lat;lon;timestamp;P1;P2;P0
60816;PMS5003;51921;51.518;-3.188;2023-03-01T00:02:16;9;8;
60816;PMS5003;51921;51.518;-3.188;2023-03-01T00:04:41;7;7;
60816;PMS5003;51921;51.518;-3.188;2023-03-01T00:07:07;8;7;
60816;PMS5003;51921;51.518;-3.188;2023-03-01T00:09:33;7;7;
60816;PMS5003;51921;51.518;-3.188;2023-03-01T00:11:58;8;8;
60816;PMS5003;51921;51.518;-3.188;2023-03-01T00:14:24;10;9;
60816;PMS5003;51921;51.518;-3.188;2023-03-01T00:16:49;7;6;
60816;PMS5003;51921;51.518;-3.188;2023-03-01T00:19:16;9;8;
60816;PMS5003;51921;51.518;-3.188;2023-03-01T00:21:41;6;6;
60816;PMS5003;51921;51.518;-3.188;2023-03-01T00:24:06;10;9;
60816;PMS5003;51921;51.518;-3.188;2023-03-01T00:26:32;9;8;
60816;PMS5003;51921;51.518;-3.188;2023-03-01T00:28:58;10;9;
60816;PMS5003;51921;51.518;-3.188;2023-03-01T00:31:24;7;6;
60816;PMS5003;51921;51.518;-3.188;2023-03-01T00:33:52;13;11;
60816;PMS5003;51921;51.518;-3.188;2023-03-01T00:36:15;12;12;
60816;PMS5003;51921;51.518;-3.188;2023-03-01T00:38:42;10;9;
60816;PMS5003;51921;51.518;-3.188;2023-03-01T00:41:06;10;9;
60816;PMS5003;51921;51.518;-3.188;2023-03-01T00:43:31;8;8;
60816;PMS5003;51921;51.518;-3.188;2023-03-01T00:46:00;9;9;
60816;PMS5003;51921;51.518;-3.188;2023-03-01T00:48:22;10;9;
60816;PMS5003;51921;51.518;-3.188;2023-03-01T00:50:48;9;9;
60816;PMS5003;51921;51.518;-3.188;2023-03-01T00:53:14;11;11;
60816;PMS5003;51921;51.518;-3.188;2023-03-01T00:55:39;10;8;
60816;PMS5003;51921;51.518;-3.188;2023-03-01T00:58:05;11;10;
60816;PMS5003;51921;51.518;-3.188;2023-03-01T01:00:30;11;11;
60816;PMS5003;51921;51.518;-3.188;2023-03-01T01:02:56;11;11;
60816;PMS5003;51921;51.518;-3.188;2023-03-01T01:05:21;8;8;
60816;PMS5003;51921;51.518;-3.188;2023-03-01T01:07:47;10;9;
60816;PMS5003;51921;51.518;-3.188;2023-03-01T01:10:12;9;8;
60816;PMS5003;51921;51.518;-3.188;2023-03-01T01:12:38;11;10;
60816;PMS5003;51921;51.518;-3.188;2023-03-01T01:15:04;8;8;
60816;PMS5003;51921;51.518;-3.188;2023-03-01T01:17:29;7;7;
60816;PMS5003;51921;51.518;-3.188;2023-03-01T01:19:55;8;7;
60816;PMS5003;51921;51.518;-3.188;2023-03-01T01:22:21;8;8;
60816;PMS5003;51921;51.518;-3.188;2023-03-01T01:24:46;6;5;
60816;PMS5003;51921;51.518;-3.188;2023-03-01T01:27:12;7;7;
60816;PMS5003;51921;51.518;-3.188;2023-03-01T01:29:38;7;7;
60816;PMS5003;51921;51.518;-3.188;2023-03-01T01:32:04;8;7;
60816;PMS5003;51921;51.518;-3.188;2023-03-01T01:34:29;7;7;
60816;PMS5003;51921;51.518;-3.188;2023-03-01T01:36:54;8;8;
60816;PMS5003;51921;51.518;-3.188;2023-03-01T01:39:20;7;6;
60816;PMS5003;51921;51.518;-3.188;2023-03-01T01:41:46;6;5;
60816;PMS5003;51921;51.518;-3.188;2023-03-01T01:44:14;7;7;
60816;PMS5003;51921;51.518;-3.188;2023-03-01T01:46:37;7;6;
60816;PMS5003;51921;51.518;-3.188;2023-03-01T01:49:03;4;4;
60816;PMS5003;51921;51.518;-3.188;2023-03-01T01:51:29;3;3;
60816;PMS5003;51921;51.518;-3.188;2023-03-01T01:53:55;5;5;
60816;PMS5003;51921;51.518;-3.188;2023-03-01T01:56:20;5;5;
60816;PMS5003;51921;51.518;-3.188;2023-03-01T01:58:45;3;3;
60816;PMS5003;51921;51.518;-3.188;2023-03-01T02:01:11;4;4;
60816;PMS5003;51921;51.518;-3.188;2023-03-01T02:03:37;3;3;
60816;PMS5003;51921;51.518;-3.188;2023-03-01T02:06:03;2;2;
60816;PMS5003;51921;51.518;-3.188;2023-03-01T02:08:29;2;2;
60816;PMS5003;51921;51.518;-3.188;2023-03-01T02:10:54;2;2;
60816;PMS5003;51921;51.518;-3.188;2023-03-01T02:13:19;3;2;
60816;PMS5003;51921;51.518;-3.188;2023-03-01T02:15:45;2;1;
60816;PMS5003;51921;51.518;-3.188;2023-03-01T02:18:11;2;2;
60816;PMS5003;51921;51.518;-3.188;2023-03-01T02:20:38;1;1;
60816;PMS5003;51921;51.518;-3.188;2023-03-01T02:23:02;2;2;
60816;PMS5003;51921;51.518;-3.188;2023-03-01T02:25:30;3;2;
60816;PMS5003;51921;51.518;-3.188;2023-03-01T02:27:54;2;2;
60816;PMS5003;51921;51.518;-3.188;2023-03-01T02:30:19;2;2;
60816;PMS5003;51921;51.518;-3.188;2023-03-01T02:32:45;2;2;
60816;PMS5003;51921;51.518;-3.188;2023-03-01T02:35:12;3;3;
60816;PMS5003;51921;51.518;-3.188;2023-03-01T02:37:36;1;1;
60816;PMS5003;51921;51.518;-3.188;2023-03-01T02:40:02;1;1;
60816;PMS5003;51921;51.518;-3.188;2023-03-01T02:42:29;4;4;
60816;PMS5003;51921;51.518;-3.188;2023-03-01T02:44:53;5;5;
60816;PMS5003;51921;51.518;-3.188;2023-03-01T02:47:19;4;4;
60816;PMS5003;51921;51.518;-3.188;2023-03-01T02:49:44;4;3;
60816;PMS5003;51921;51.518;-3.188;2023-03-01T02:54:38;4;4;
60816;PMS5003;51921;51.518;-3.188;2023-03-01T02:57:01;5;5;
60816;PMS5003;51921;51.518;-3.188;2023-03-01T02:59:28;5;3;
60816;PMS5003;51921;51.518;-3.188;2023-03-01T03:01:52;3;3;
60816;PMS5003;51921;51.518;-3.188;2023-03-01T03:04:18;5;4;
60816;PMS5003;51921;51.518;-3.188;2023-03-01T03:06:44;3;3;
60816;PMS5003;51921;51.518;-3.188;2023-03-01T03:09:10;5;5;
60816;PMS5003;51921;51.518;-3.188;2023-03-01T03:11:35;6;5;
60816;PMS5003;51921;51.518;-3.188;2023-03-01T03:14:01;4;3;
60816;PMS5003;51921;51.518;-3.188;2023-03-01T03:16:26;2;2;
60816;PMS5003;51921;51.518;-3.188;2023-03-01T03:18:52;4;4;
60816;PMS5003;51921;51.518;-3.188;2023-03-01T03:21:18;3;3;
60816;PMS5003;51921;51.518;-3.188;2023-03-01T03:23:43;5;4;
60816;PMS5003;51921;51.518;-3.188;2023-03-01T03:26:09;4;4;
60816;PMS5003;51921;51.518;-3.188;2023-03-01T03:28:35;5;5;
60816;PMS5003;51921;51.518;-3.188;2023-03-01T03:31:01;4;3;
60816;PMS5003;51921;51.518;-3.188;2023-03-01T03:33:26;4;3;
60816;PMS5003;51921;51.518;-3.188;2023-03-01T03:35:52;4;4;
60816;PMS5003;51921;51.518;-3.188;2023-03-01T03:38:18;3;2;
60816;PMS5003;51921;51.518;-3.188;2023-03-01T03:40:44;3;3;
60816;PMS5003;51921;51.518;-3.188;2023-03-01T03:43:10;4;3;
60816;PMS5003;51921;51.518;-3.188;2023-03-01T03:45:34;7;6;
60816;PMS5003;51921;51.518;-3.188;2023-03-01T03:47:59;5;5;
60816;PMS5003;51921;51.518;-3.188;2023-03-01T03:50:24;4;4;
60816;PMS5003;51921;51.518;-3.188;2023-03-01T03:52:50;3;3;
60816;PMS5003;51921;51.518;-3.188;2023-03-01T03:55:16;3;3;
60816;PMS5003;51921;51.518;-3.188;2023-03-01T03:57:41;5;4;
60816;PMS5003;51921;51.518;-3.188;2023-03-01T04:00:08;4;4;
60816;PMS5003;51921;51.518;-3.188;2023-03-01T04:02:33;5;5;
60816;PMS5003;51921;51.518;-3.188;2023-03-01T04:04:58;3;3;
60816;PMS5003;51921;51.518;-3.188;2023-03-01T04:07:24;4;4;
60816;PMS5003;51921;51.518;-3.188;2023-03-01T04:09:50;3;3;
60816;PMS5003;51921;51.518;-3.188;2023-03-01T04:12:15;5;5;
60816;PMS5003;51921;51.518;-3.188;2023-03-01T04:14:41;2;2;
60816;PMS5003;51921;51.518;-3.188;2023-03-01T04:17:07;4;3;
60816;PMS5003;51921;51.518;-3.188;2023-03-01T04:19:32;4;3;
60816;PMS5003;51921;51.518;-3.188;2023-03-01T04:21:58;6;5;
60816;PMS5003;51921;51.518;-3.188;2023-03-01T04:24:24;4;4;
60816;PMS5003;51921;51.518;-3.188;2023-03-01T04:26:54;8;6;
60816;PMS5003;51921;51.518;-3.188;2023-03-01T04:29:15;4;4;
60816;PMS5003;51921;51.518;-3.188;2023-03-01T04:31:41;6;6;
60816;PMS5003;51921;51.518;-3.188;2023-03-01T04:34:06;7;7;
60816;PMS5003;51921;51.518;-3.188;2023-03-01T04:36:32;5;5;
60816;PMS5003;51921;51.518;-3.188;2023-03-01T04:38:58;5;5;
60816;PMS5003;51921;51.518;-3.188;2023-03-01T04:41:24;5;5;
60816;PMS5003;51921;51.518;-3.188;2023-03-01T04:43:49;5;5;
60816;PMS5003;51921;51.518;-3.188;2023-03-01T04:46:16;2;2;
60816;PMS5003;51921;51.518;-3.188;2023-03-01T04:48:41;6;4;
60816;PMS5003;51921;51.518;-3.188;2023-03-01T04:51:06;5;4;
60816;PMS5003;51921;51.518;-3.188;2023-03-01T04:53:32;5;5;
60816;PMS5003;51921;51.518;-3.188;2023-03-01T04:55:57;6;4;
60816;PMS5003;51921;51.518;-3.188;2023-03-01T04:58:23;5;5;
60816;PMS5003;51921;51.518;-3.188;2023-03-01T05:00:49;5;4;
60816;PMS5003;51921;51.518;-3.188;2023-03-01T05:03:14;4;4;
60816;PMS5003;51921;51.518;-3.188;2023-03-01T05:05:40;3;3;
60816;PMS5003;51921;51.518;-3.188;2023-03-01T05:08:06;6;5;
60816;PMS5003;51921;51.518;-3.188;2023-03-01T05:10:32;5;4;
60816;PMS5003;51921;51.518;-3.188;2023-03-01T05:12:57;6;5;
60816;PMS5003;51921;51.518;-3.188;2023-03-01T05:15:23;6;5;
60816;PMS5003;51921;51.518;-3.188;2023-03-01T05:17:48;5;4;
60816;PMS5003;51921;51.518;-3.188;2023-03-01T05:20:14;5;4;
60816;PMS5003;51921;51.518;-3.188;2023-03-01T05:22:40;7;6;
60816;PMS5003;51921;51.518;-3.188;2023-03-01T05:25:06;3;3;
60816;PMS5003;51921;51.518;-3.188;2023-03-01T05:27:31;4;4;
60816;PMS5003;51921;51.518;-3.188;2023-03-01T05:29:56;3;3;
60816;PMS5003;51921;51.518;-3.188;2023-03-01T05:32:22;5;5;
60816;PMS5003;51921;51.518;-3.188;2023-03-01T05:34:48;9;8;
60816;PMS5003;51921;51.518;-3.188;2023-03-01T05:37:13;4;4;
60816;PMS5003;51921;51.518;-3.188;2023-03-01T05:39:39;5;5;
60816;PMS5003;51921;51.518;-3.188;2023-03-01T05:42:05;5;5;
60816;PMS5003;51921;51.518;-3.188;2023-03-01T05:44:30;5;5;
60816;PMS5003;51921;51.518;-3.188;2023-03-01T05:46:56;4;4;
60816;PMS5003;51921;51.518;-3.188;2023-03-01T05:49:22;4;4;
60816;PMS5003;51921;51.518;-3.188;2023-03-01T05:51:48;8;8;
60816;PMS5003;51921;51.518;-3.188;2023-03-01T05:54:13;6;6;
60816;PMS5003;51921;51.518;-3.188;2023-03-01T05:56:38;7;5;
60816;PMS5003;51921;51.518;-3.188;2023-03-01T05:59:04;6;5;
60816;PMS5003;51921;51.518;-3.188;2023-03-01T06:01:30;7;6;
60816;PMS5003;51921;51.518;-3.188;2023-03-01T06:03:55;8;7;
60816;PMS5003;51921;51.518;-3.188;2023-03-01T06:06:21;8;8;
60816;PMS5003;51921;51.518;-3.188;2023-03-01T06:08:47;6;6;
60816;PMS5003;51921;51.518;-3.188;2023-03-01T06:11:12;8;8;
60816;PMS5003;51921;51.518;-3.188;2023-03-01T06:13:38;6;6;
60816;PMS5003;51921;51.518;-3.188;2023-03-01T06:16:04;6;6;
60816;PMS5003;51921;51.518;-3.188;2023-03-01T06:18:29;9;8;
60816;PMS5003;51921;51.518;-3.188;2023-03-01T06:20:55;10;8;
60816;PMS5003;51921;51.518;-3.188;2023-03-01T06:23:20;6;6;
60816;PMS5003;51921;51.518;-3.188;2023-03-01T06:25:46;8;8;
60816;PMS5003;51921;51.518;-3.188;2023-03-01T06:28:12;6;6;
60816;PMS5003;51921;51.518;-3.188;2023-03-01T06:30:37;7;6;
60816;PMS5003;51921;51.518;-3.188;2023-03-01T06:33:03;11;8;
60816;PMS5003;51921;51.518;-3.188;2023-03-01T06:35:29;6;6;
60816;PMS5003;51921;51.518;-3.188;2023-03-01T06:37:55;9;8;
60816;PMS5003;51921;51.518;-3.188;2023-03-01T06:40:20;10;9;
60816;PMS5003;51921;51.518;-3.188;2023-03-01T06:42:47;10;10;
60816;PMS5003;51921;51.518;-3.188;2023-03-01T06:45:11;11;10;
60816;PMS5003;51921;51.518;-3.188;2023-03-01T06:47:37;12;8;
60816;PMS5003;51921;51.518;-3.188;2023-03-01T06:50:03;10;8;
60816;PMS5003;51921;51.518;-3.188;2023-03-01T06:52:28;8;8;
60816;PMS5003;51921;51.518;-3.188;2023-03-01T06:54:54;10;10;
60816;PMS5003;51921;51.518;-3.188;2023-03-01T06:57:19;9;8;
60816;PMS5003;51921;51.518;-3.188;2023-03-01T06:59:50;13;10;
60816;PMS5003;51921;51.518;-3.188;2023-03-01T07:02:11;12;10;
60816;PMS5003;51921;51.518;-3.188;2023-03-01T07:04:37;9;9;
60816;PMS5003;51921;51.518;-3.188;2023-03-01T07:07:02;9;9;
60816;PMS5003;51921;51.518;-3.188;2023-03-01T07:09:28;12;12;
60816;PMS5003;51921;51.518;-3.188;2023-03-01T07:11:53;7;7;
60816;PMS5003;51921;51.518;-3.188;2023-03-01T07:14:19;8;8;
60816;PMS5003;51921;51.518;-3.188;2023-03-01T07:16:44;10;9;
60816;PMS5003;51921;51.518;-3.188;2023-03-01T07:19:10;12;11;
60816;PMS5003;51921;51.518;-3.188;2023-03-01T07:21:36;11;10;
60816;PMS5003;51921;51.518;-3.188;2023-03-01T07:24:01;10;10;
60816;PMS5003;51921;51.518;-3.188;2023-03-01T07:26:27;9;9;
60816;PMS5003;51921;51.518;-3.188;2023-03-01T07:28:52;12;10;
60816;PMS5003;51921;51.518;-3.188;2023-03-01T07:31:18;10;9;
60816;PMS5003;51921;51.518;-3.188;2023-03-01T07:33:43;9;9;
60816;PMS5003;51921;51.518;-3.188;2023-03-01T07:36:09;10;9;
60816;PMS5003;51921;51.518;-3.188;2023-03-01T07:38:34;11;10;
60816;PMS5003;51921;51.518;-3.188;2023-03-01T07:41:01;13;11;
60816;PMS5003;51921;51.518;-3.188;2023-03-01T07:43:26;10;10;
60816;PMS5003;51921;51.518;-3.188;2023-03-01T07:45:51;11;11;
60816;PMS5003;51921;51.518;-3.188;2023-03-01T07:48:17;12;11;
60816;PMS5003;51921;51.518;-3.188;2023-03-01T07:50:42;7;7;
60816;PMS5003;51921;51.518;-3.188;2023-03-01T07:53:08;9;9;
60816;PMS5003;51921;51.518;-3.188;2023-03-01T07:55:33;12;11;
60816;PMS5003;51921;51.518;-3.188;2023-03-01T07:57:59;15;13;
60816;PMS5003;51921;51.518;-3.188;2023-03-01T08:00:24;15;13;
60816;PMS5003;51921;51.518;-3.188;2023-03-01T08:02:50;10;9;
60816;PMS5003;51921;51.518;-3.188;2023-03-01T08:05:16;11;10;
60816;PMS5003;51921;51.518;-3.188;2023-03-01T08:07:41;11;10;
60816;PMS5003;51921;51.518;-3.188;2023-03-01T08:10:07;8;8;
60816;PMS5003;51921;51.518;-3.188;2023-03-01T08:12:32;7;7;
60816;PMS5003;51921;51.518;-3.188;2023-03-01T08:14:58;10;10;
60816;PMS5003;51921;51.518;-3.188;2023-03-01T08:17:24;9;8;
60816;PMS5003;51921;51.518;-3.188;2023-03-01T08:19:49;10;9;
60816;PMS5003;51921;51.518;-3.188;2023-03-01T08:22:15;11;10;
60816;PMS5003;51921;51.518;-3.188;2023-03-01T08:24:41;6;6;
60816;PMS5003;51921;51.518;-3.188;2023-03-01T08:27:06;9;7;
60816;PMS5003;51921;51.518;-3.188;2023-03-01T08:29:32;7;7;
60816;PMS5003;51921;51.518;-3.188;2023-03-01T08:31:58;12;10;
60816;PMS5003;51921;51.518;-3.188;2023-03-01T08:34:23;8;8;
60816;PMS5003;51921;51.518;-3.188;2023-03-01T08:36:49;7;7;
60816;PMS5003;51921;51.518;-3.188;2023-03-01T08:39:15;6;6;
60816;PMS5003;51921;51.518;-3.188;2023-03-01T08:41:40;8;6;
60816;PMS5003;51921;51.518;-3.188;2023-03-01T08:44:06;5;5;
60816;PMS5003;51921;51.518;-3.188;2023-03-01T08:46:32;8;7;
60816;PMS5003;51921;51.518;-3.188;2023-03-01T08:48:57;4;4;
60816;PMS5003;51921;51.518;-3.188;2023-03-01T08:51:23;6;6;
60816;PMS5003;51921;51.518;-3.188;2023-03-01T08:53:48;5;5;
60816;PMS5003;51921;51.518;-3.188;2023-03-01T08:56:14;6;6;
60816;PMS5003;51921;51.518;-3.188;2023-03-01T08:58:39;6;4;
60816;PMS5003;51921;51.518;-3.188;2023-03-01T09:01:06;5;5;
60816;PMS5003;51921;51.518;-3.188;2023-03-01T09:03:31;4;4;
60816;PMS5003;51921;51.518;-3.188;2023-03-01T09:05:59;6;6;
60816;PMS5003;51921;51.518;-3.188;2023-03-01T09:08:22;7;7;
60816;PMS5003;51921;51.518;-3.188;2023-03-01T09:10:48;7;6;
60816;PMS5003;51921;51.518;-3.188;2023-03-01T09:13:13;5;4;
60816;PMS5003;51921;51.518;-3.188;2023-03-01T09:15:39;5;5;
60816;PMS5003;51921;51.518;-3.188;2023-03-01T09:18:05;7;7;
60816;PMS5003;51921;51.518;-3.188;2023-03-01T09:20:31;6;6;
60816;PMS5003;51921;51.518;-3.188;2023-03-01T09:22:56;8;7;
60816;PMS5003;51921;51.518;-3.188;2023-03-01T09:25:23;7;6;
60816;PMS5003;51921;51.518;-3.188;2023-03-01T09:27:47;7;7;
60816;PMS5003;51921;51.518;-3.188;2023-03-01T09:30:13;7;6;
60816;PMS5003;51921;51.518;-3.188;2023-03-01T09:32:38;8;7;
60816;PMS5003;51921;51.518;-3.188;2023-03-01T09:35:04;7;7;
60816;PMS5003;51921;51.518;-3.188;2023-03-01T09:37:30;8;6;
60816;PMS5003;51921;51.518;-3.188;2023-03-01T09:39:55;7;6;
60816;PMS5003;51921;51.518;-3.188;2023-03-01T09:42:21;9;8;
60816;PMS5003;51921;51.518;-3.188;2023-03-01T09:44:48;6;5;
60816;PMS5003;51921;51.518;-3.188;2023-03-01T09:47:15;6;5;
60816;PMS5003;51921;51.518;-3.188;2023-03-01T09:49:39;4;4;
60816;PMS5003;51921;51.518;-3.188;2023-03-01T09:52:06;5;4;
60816;PMS5003;51921;51.518;-3.188;2023-03-01T09:54:29;4;4;
60816;PMS5003;51921;51.518;-3.188;2023-03-01T09:57:01;5;5;
60816;PMS5003;51921;51.518;-3.188;2023-03-01T09:59:22;4;4;
60816;PMS5003;51921;51.518;-3.188;2023-03-01T10:01:47;4;4;
60816;PMS5003;51921;51.518;-3.188;2023-03-01T10:04:17;6;6;
60816;PMS5003;51921;51.518;-3.188;2023-03-01T10:06:37;4;4;
60816;PMS5003;51921;51.518;-3.188;2023-03-01T10:09:04;4;4;
60816;PMS5003;51921;51.518;-3.188;2023-03-01T10:11:30;4;4;
60816;PMS5003;51921;51.518;-3.188;2023-03-01T10:13:56;8;6;
60816;PMS5003;51921;51.518;-3.188;2023-03-01T10:16:21;4;4;
60816;PMS5003;51921;51.518;-3.188;2023-03-01T10:18:46;7;6;
60816;PMS5003;51921;51.518;-3.188;2023-03-01T10:21:13;5;4;
60816;PMS5003;51921;51.518;-3.188;2023-03-01T10:23:37;6;4;
60816;PMS5003;51921;51.518;-3.188;2023-03-01T10:26:07;7;6;
60816;PMS5003;51921;51.518;-3.188;2023-03-01T10:28:29;5;5;
60816;PMS5003;51921;51.518;-3.188;2023-03-01T10:30:54;3;3;
60816;PMS5003;51921;51.518;-3.188;2023-03-01T10:33:20;5;5;
60816;PMS5003;51921;51.518;-3.188;2023-03-01T10:35:45;3;3;
60816;PMS5003;51921;51.518;-3.188;2023-03-01T10:38:11;5;4;
60816;PMS5003;51921;51.518;-3.188;2023-03-01T10:40:49;4;4;
60816;PMS5003;51921;51.518;-3.188;2023-03-01T10:43:10;6;4;
60816;PMS5003;51921;51.518;-3.188;2023-03-01T10:45:31;5;4;
60816;PMS5003;51921;51.518;-3.188;2023-03-01T10:50:19;3;3;
60816;PMS5003;51921;51.518;-3.188;2023-03-01T10:52:55;6;5;
60816;PMS5003;51921;51.518;-3.188;2023-03-01T10:57:37;3;3;
60816;PMS5003;51921;51.518;-3.188;2023-03-01T11:02:28;5;4;
60816;PMS5003;51921;51.518;-3.188;2023-03-01T11:04:57;4;3;
60816;PMS5003;51921;51.518;-3.188;2023-03-01T11:07:18;5;5;
60816;PMS5003;51921;51.518;-3.188;2023-03-01T11:09:44;4;3;
60816;PMS5003;51921;51.518;-3.188;2023-03-01T11:12:12;7;6;
60816;PMS5003;51921;51.518;-3.188;2023-03-01T11:14:36;3;3;
60816;PMS5003;51921;51.518;-3.188;2023-03-01T11:17:01;2;2;
60816;PMS5003;51921;51.518;-3.188;2023-03-01T11:19:26;3;2;
60816;PMS5003;51921;51.518;-3.188;2023-03-01T11:21:55;3;2;
60816;PMS5003;51921;51.518;-3.188;2023-03-01T11:24:18;3;3;
60816;PMS5003;51921;51.518;-3.188;2023-03-01T11:26:44;4;3;
60816;PMS5003;51921;51.518;-3.188;2023-03-01T11:29:12;3;2;
60816;PMS5003;51921;51.518;-3.188;2023-03-01T11:31:35;4;3;
60816;PMS5003;51921;51.518;-3.188;2023-03-01T11:34:03;3;3;
60816;PMS5003;51921;51.518;-3.188;2023-03-01T11:36:28;5;5;
60816;PMS5003;51921;51.518;-3.188;2023-03-01T11:38:51;4;4;
60816;PMS5003;51921;51.518;-3.188;2023-03-01T11:41:17;3;3;
60816;PMS5003;51921;51.518;-3.188;2023-03-01T11:43:45;5;5;
60816;PMS5003;51921;51.518;-3.188;2023-03-01T11:48:37;4;4;
60816;PMS5003;51921;51.518;-3.188;2023-03-01T11:50:59;5;5;
60816;PMS5003;51921;51.518;-3.188;2023-03-01T11:53:29;5;4;
60816;PMS5003;51921;51.518;-3.188;2023-03-01T11:55:54;5;5;
60816;PMS5003;51921;51.518;-3.188;2023-03-01T11:58:23;5;5;
60816;PMS5003;51921;51.518;-3.188;2023-03-01T12:00:45;5;5;
60816;PMS5003;51921;51.518;-3.188;2023-03-01T12:07:59;5;5;
60816;PMS5003;51921;51.518;-3.188;2023-03-01T12:10:26;4;4;
60816;PMS5003;51921;51.518;-3.188;2023-03-01T12:12:55;5;5;
60816;PMS5003;51921;51.518;-3.188;2023-03-01T12:17:46;5;5;
60816;PMS5003;51921;51.518;-3.188;2023-03-01T12:20:12;6;6;
60816;PMS5003;51921;51.518;-3.188;2023-03-01T12:22:34;6;5;
60816;PMS5003;51921;51.518;-3.188;2023-03-01T12:25:05;5;5;
60816;PMS5003;51921;51.518;-3.188;2023-03-01T12:27:28;5;5;
60816;PMS5003;51921;51.518;-3.188;2023-03-01T12:29:50;5;5;
60816;PMS5003;51921;51.518;-3.188;2023-03-01T12:32:19;5;4;
60816;PMS5003;51921;51.518;-3.188;2023-03-01T12:37:11;6;6;
60816;PMS5003;51921;51.518;-3.188;2023-03-01T12:39:35;5;5;
60816;PMS5003;51921;51.518;-3.188;2023-03-01T12:41:59;4;4;
60816;PMS5003;51921;51.518;-3.188;2023-03-01T12:44:27;8;7;
60816;PMS5003;51921;51.518;-3.188;2023-03-01T12:46:52;6;6;
60816;PMS5003;51921;51.518;-3.188;2023-03-01T12:49:14;7;6;
60816;PMS5003;51921;51.518;-3.188;2023-03-01T12:51:39;8;7;
60816;PMS5003;51921;51.518;-3.188;2023-03-01T12:54:07;8;7;
60816;PMS5003;51921;51.518;-3.188;2023-03-01T12:56:31;5;4;
60816;PMS5003;51921;51.518;-3.188;2023-03-01T12:58:57;6;6;
60816;PMS5003;51921;51.518;-3.188;2023-03-01T13:01:22;7;6;
60816;PMS5003;51921;51.518;-3.188;2023-03-01T13:03:59;8;7;
60816;PMS5003;51921;51.518;-3.188;2023-03-01T13:06:15;6;6;
60816;PMS5003;51921;51.518;-3.188;2023-03-01T13:08:39;5;5;
60816;PMS5003;51921;51.518;-3.188;2023-03-01T13:11:04;10;8;
60816;PMS5003;51921;51.518;-3.188;2023-03-01T13:13:29;7;7;
60816;PMS5003;51921;51.518;-3.188;2023-03-01T13:15:55;9;9;
60816;PMS5003;51921;51.518;-3.188;2023-03-01T13:18:28;8;8;
60816;PMS5003;51921;51.518;-3.188;2023-03-01T13:20:47;7;7;
60816;PMS5003;51921;51.518;-3.188;2023-03-01T13:23:13;11;10;
60816;PMS5003;51921;51.518;-3.188;2023-03-01T13:32:55;5;5;
60816;PMS5003;51921;51.518;-3.188;2023-03-01T13:37:45;5;5;
60816;PMS5003;51921;51.518;-3.188;2023-03-01T13:42:38;6;6;
60816;PMS5003;51921;51.518;-3.188;2023-03-01T13:45:02;5;5;
60816;PMS5003;51921;51.518;-3.188;2023-03-01T13:47:28;8;6;
60816;PMS5003;51921;51.518;-3.188;2023-03-01T13:49:55;5;4;
60816;PMS5003;51921;51.518;-3.188;2023-03-01T13:52:35;10;8;
60816;PMS5003;51921;51.518;-3.188;2023-03-01T13:54:44;6;6;
60816;PMS5003;51921;51.518;-3.188;2023-03-01T13:57:12;6;5;
60816;PMS5003;51921;51.518;-3.188;2023-03-01T13:59:36;6;6;
60816;PMS5003;51921;51.518;-3.188;2023-03-01T14:02:01;5;5;
60816;PMS5003;51921;51.518;-3.188;2023-03-01T14:04:28;8;7;
60816;PMS5003;51921;51.518;-3.188;2023-03-01T14:09:20;5;5;
60816;PMS5003;51921;51.518;-3.188;2023-03-01T14:11:54;6;6;
60816;PMS5003;51921;51.518;-3.188;2023-03-01T14:14:15;6;6;
60816;PMS5003;51921;51.518;-3.188;2023-03-01T14:16:36;6;6;
60816;PMS5003;51921;51.518;-3.188;2023-03-01T14:19:04;10;9;
60816;PMS5003;51921;51.518;-3.188;2023-03-01T14:21:26;6;6;
60816;PMS5003;51921;51.518;-3.188;2023-03-01T14:23:52;6;5;
60816;PMS5003;51921;51.518;-3.188;2023-03-01T14:26:20;7;6;
60816;PMS5003;51921;51.518;-3.188;2023-03-01T14:28:43;5;5;
60816;PMS5003;51921;51.518;-3.188;2023-03-01T14:33:35;7;7;
60816;PMS5003;51921;51.518;-3.188;2023-03-01T14:36:00;7;6;
60816;PMS5003;51921;51.518;-3.188;2023-03-01T14:38:30;7;6;
60816;PMS5003;51921;51.518;-3.188;2023-03-01T14:40:51;6;6;
60816;PMS5003;51921;51.518;-3.188;2023-03-01T14:43:17;5;5;
60816;PMS5003;51921;51.518;-3.188;2023-03-01T14:45:42;7;7;
60816;PMS5003;51921;51.518;-3.188;2023-03-01T14:48:08;7;7;
60816;PMS5003;51921;51.518;-3.188;2023-03-01T14:50:34;8;8;
60816;PMS5003;51921;51.518;-3.188;2023-03-01T14:52:59;9;9;
60816;PMS5003;51921;51.518;-3.188;2023-03-01T14:55:26;12;10;
60816;PMS5003;51921;51.518;-3.188;2023-03-01T14:57:51;8;8;
60816;PMS5003;51921;51.518;-3.188;2023-03-01T15:00:18;9;9;
60816;PMS5003;51921;51.518;-3.188;2023-03-01T15:02:41;9;9;
60816;PMS5003;51921;51.518;-3.188;2023-03-01T15:05:07;10;9;
60816;PMS5003;51921;51.518;-3.188;2023-03-01T15:07:33;8;8;
60816;PMS5003;51921;51.518;-3.188;2023-03-01T15:09:58;6;6;
60816;PMS5003;51921;51.518;-3.188;2023-03-01T15:14:49;9;9;
60816;PMS5003;51921;51.518;-3.188;2023-03-01T15:17:19;8;8;
60816;PMS5003;51921;51.518;-3.188;2023-03-01T15:19:40;10;10;
60816;PMS5003;51921;51.518;-3.188;2023-03-01T15:24:31;8;7;
60816;PMS5003;51921;51.518;-3.188;2023-03-01T15:26:58;8;8;
60816;PMS5003;51921;51.518;-3.188;2023-03-01T15:29:23;7;6;
60816;PMS5003;51921;51.518;-3.188;2023-03-01T15:36:41;14;12;
60816;PMS5003;51921;51.518;-3.188;2023-03-01T15:39:05;12;12;
60816;PMS5003;51921;51.518;-3.188;2023-03-01T15:41:31;13;13;
60816;PMS5003;51921;51.518;-3.188;2023-03-01T15:43:56;12;11;
60816;PMS5003;51921;51.518;-3.188;2023-03-01T15:46:23;12;11;
60816;PMS5003;51921;51.518;-3.188;2023-03-01T15:48:47;11;10;
60816;PMS5003;51921;51.518;-3.188;2023-03-01T15:51:13;7;7;
60816;PMS5003;51921;51.518;-3.188;2023-03-01T15:53:38;8;8;
60816;PMS5003;51921;51.518;-3.188;2023-03-01T15:56:04;9;8;
60816;PMS5003;51921;51.518;-3.188;2023-03-01T15:58:29;7;7;
60816;PMS5003;51921;51.518;-3.188;2023-03-01T16:00:55;7;7;
60816;PMS5003;51921;51.518;-3.188;2023-03-01T16:03:21;5;5;
60816;PMS5003;51921;51.518;-3.188;2023-03-01T16:05:46;6;6;
60816;PMS5003;51921;51.518;-3.188;2023-03-01T16:08:12;9;7;
60816;PMS5003;51921;51.518;-3.188;2023-03-01T16:10:37;9;8;
60816;PMS5003;51921;51.518;-3.188;2023-03-01T16:13:03;8;8;
60816;PMS5003;51921;51.518;-3.188;2023-03-01T16:15:29;7;6;
60816;PMS5003;51921;51.518;-3.188;2023-03-01T16:17:54;6;6;
60816;PMS5003;51921;51.518;-3.188;2023-03-01T16:20:20;7;7;
60816;PMS5003;51921;51.518;-3.188;2023-03-01T16:22:46;7;7;
60816;PMS5003;51921;51.518;-3.188;2023-03-01T16:25:12;8;8;
60816;PMS5003;51921;51.518;-3.188;2023-03-01T16:27:37;7;7;
60816;PMS5003;51921;51.518;-3.188;2023-03-01T16:30:03;6;6;
60816;PMS5003;51921;51.518;-3.188;2023-03-01T16:32:28;7;7;
60816;PMS5003;51921;51.518;-3.188;2023-03-01T16:34:54;6;6;
60816;PMS5003;51921;51.518;-3.188;2023-03-01T16:37:19;8;6;
60816;PMS5003;51921;51.518;-3.188;2023-03-01T16:39:45;6;6;
60816;PMS5003;51921;51.518;-3.188;2023-03-01T16:42:10;7;7;
60816;PMS5003;51921;51.518;-3.188;2023-03-01T16:44:36;6;6;
60816;PMS5003;51921;51.518;-3.188;2023-03-01T16:47:02;7;7;
60816;PMS5003;51921;51.518;-3.188;2023-03-01T16:49:27;6;6;
60816;PMS5003;51921;51.518;-3.188;2023-03-01T16:51:53;6;6;
60816;PMS5003;51921;51.518;-3.188;2023-03-01T16:54:18;6;6;
60816;PMS5003;51921;51.518;-3.188;2023-03-01T16:56:44;7;7;
60816;PMS5003;51921;51.518;-3.188;2023-03-01T16:59:09;8;8;
60816;PMS5003;51921;51.518;-3.188;2023-03-01T17:01:35;5;5;
60816;PMS5003;51921;51.518;-3.188;2023-03-01T17:04:01;6;6;
60816;PMS5003;51921;51.518;-3.188;2023-03-01T17:06:26;8;7;
60816;PMS5003;51921;51.518;-3.188;2023-03-01T17:08:52;9;7;